sensor_id;sensor_type;location;lat;lon;timestamp;P1;durP1;ratioP1;P2;durP2;ratioP2
50102;SDS011;35993;52.604;10.078;2022-11-15T00:00:34;17.73;;;10.30;;
50102;SDS011;35993;52.604;10.078;2022-11-15T00:03:27;17.77;;;9.02;;
50102;SDS011;35993;52.604;10.078;2022-11-15T00:06:11;17.52;;;9.38;;
50102;SDS011;35993;52.604;10.078;2022-11-15T00:08:59;16.35;;;9.82;;
50102;SDS011;35993;52.604;10.078;2022-11-15T00:11:44;15.48;;;8.90;;
50102;SDS011;35993;52.604;10.078;2022-11-15T00:14:28;16.20;;;10.10;;
50102;SDS011;35993;52.604;10.078;2022-11-15T00:17:12;17.38;;;9.45;;
50102;SDS011;35993;52.604;10.078;2022-11-15T00:19:56;17.15;;;9.30;;
50102;SDS011;35993;52.604;10.078;2022-11-15T00:22:40;16.08;;;9.73;;
50102;SDS011;35993;52.604;10.078;2022-11-15T00:25:25;13.57;;;8.55;;
50102;SDS011;35993;52.604;10.078;2022-11-15T00:28:09;13.32;;;8.25;;
50102;SDS011;35993;52.604;10.078;2022-11-15T00:30:54;13.40;;;8.82;;
50102;SDS011;35993;52.604;10.078;2022-11-15T00:33:43;15.70;;;9.23;;
50102;SDS011;35993;52.604;10.078;2022-11-15T00:36:28;16.77;;;8.88;;
50102;SDS011;35993;52.604;10.078;2022-11-15T00:39:16;15.88;;;8.57;;
50102;SDS011;35993;52.604;10.078;2022-11-15T00:42:00;13.10;;;7.78;;
50102;SDS011;35993;52.604;10.078;2022-11-15T00:44:44;15.70;;;8.40;;
50102;SDS011;35993;52.604;10.078;2022-11-15T00:47:29;15.32;;;8.48;;
50102;SDS011;35993;52.604;10.078;2022-11-15T00:50:13;15.65;;;8.65;;
50102;SDS011;35993;52.604;10.078;2022-11-15T00:52:58;15.38;;;8.23;;
50102;SDS011;35993;52.604;10.078;2022-11-15T00:55:42;13.63;;;8.35;;
50102;SDS011;35993;52.604;10.078;2022-11-15T00:58:26;14.02;;;8.20;;
50102;SDS011;35993;52.604;10.078;2022-11-15T01:01:12;16.35;;;8.48;;
50102;SDS011;35993;52.604;10.078;2022-11-15T01:03:57;13.88;;;7.90;;
50102;SDS011;35993;52.604;10.078;2022-11-15T01:06:41;16.92;;;8.68;;
50102;SDS011;35993;52.604;10.078;2022-11-15T01:09:25;15.43;;;8.82;;
50102;SDS011;35993;52.604;10.078;2022-11-15T01:12:09;14.93;;;8.52;;
50102;SDS011;35993;52.604;10.078;2022-11-15T01:14:56;17.00;;;8.05;;
50102;SDS011;35993;52.604;10.078;2022-11-15T01:17:40;14.73;;;8.50;;
50102;SDS011;35993;52.604;10.078;2022-11-15T01:20:24;16.95;;;8.80;;
50102;SDS011;35993;52.604;10.078;2022-11-15T01:23:09;17.00;;;8.82;;
50102;SDS011;35993;52.604;10.078;2022-11-15T01:25:57;14.90;;;8.00;;
50102;SDS011;35993;52.604;10.078;2022-11-15T01:28:43;16.83;;;8.65;;
50102;SDS011;35993;52.604;10.078;2022-11-15T01:31:27;17.75;;;9.18;;
50102;SDS011;35993;52.604;10.078;2022-11-15T01:34:11;18.08;;;9.20;;
50102;SDS011;35993;52.604;10.078;2022-11-15T01:36:55;15.75;;;8.95;;
50102;SDS011;35993;52.604;10.078;2022-11-15T01:39:40;16.52;;;9.10;;
50102;SDS011;35993;52.604;10.078;2022-11-15T01:42:24;14.20;;;8.43;;
50102;SDS011;35993;52.604;10.078;2022-11-15T01:45:17;17.50;;;9.20;;
50102;SDS011;35993;52.604;10.078;2022-11-15T01:48:01;15.63;;;9.07;;
50102;SDS011;35993;52.604;10.078;2022-11-15T01:50:46;16.50;;;8.63;;
50102;SDS011;35993;52.604;10.078;2022-11-15T01:53:30;20.85;;;9.90;;
50102;SDS011;35993;52.604;10.078;2022-11-15T01:56:16;15.02;;;9.23;;
50102;SDS011;35993;52.604;10.078;2022-11-15T01:59:04;16.60;;;9.55;;
50102;SDS011;35993;52.604;10.078;2022-11-15T02:01:52;15.43;;;9.20;;
50102;SDS011;35993;52.604;10.078;2022-11-15T02:04:41;18.63;;;9.25;;
50102;SDS011;35993;52.604;10.078;2022-11-15T02:07:31;16.58;;;9.20;;
50102;SDS011;35993;52.604;10.078;2022-11-15T02:10:19;16.52;;;9.10;;
50102;SDS011;35993;52.604;10.078;2022-11-15T02:13:06;15.70;;;9.02;;
50102;SDS011;35993;52.604;10.078;2022-11-15T02:18:41;17.40;;;9.00;;
50102;SDS011;35993;52.604;10.078;2022-11-15T02:24:44;15.27;;;8.38;;
50102;SDS011;35993;52.604;10.078;2022-11-15T02:30:53;15.70;;;8.52;;
50102;SDS011;35993;52.604;10.078;2022-11-15T02:43:31;15.07;;;8.75;;
50102;SDS011;35993;52.604;10.078;2022-11-15T02:46:53;15.05;;;8.38;;
50102;SDS011;35993;52.604;10.078;2022-11-15T02:50:00;13.93;;;8.00;;
50102;SDS011;35993;52.604;10.078;2022-11-15T02:52:50;15.02;;;8.85;;
50102;SDS011;35993;52.604;10.078;2022-11-15T02:55:38;14.65;;;8.25;;
50102;SDS011;35993;52.604;10.078;2022-11-15T03:04:04;15.65;;;8.73;;
50102;SDS011;35993;52.604;10.078;2022-11-15T03:07:03;15.45;;;8.48;;
50102;SDS011;35993;52.604;10.078;2022-11-15T03:09:56;16.02;;;9.35;;
50102;SDS011;35993;52.604;10.078;2022-11-15T03:12:55;14.48;;;8.50;;
50102;SDS011;35993;52.604;10.078;2022-11-15T03:16:02;13.20;;;7.97;;
50102;SDS011;35993;52.604;10.078;2022-11-15T03:22:02;15.73;;;8.60;;
50102;SDS011;35993;52.604;10.078;2022-11-15T03:24:52;15.38;;;8.30;;
50102;SDS011;35993;52.604;10.078;2022-11-15T03:27:39;15.38;;;8.00;;
50102;SDS011;35993;52.604;10.078;2022-11-15T03:30:26;14.65;;;8.90;;
50102;SDS011;35993;52.604;10.078;2022-11-15T03:33:12;15.07;;;8.73;;
50102;SDS011;35993;52.604;10.078;2022-11-15T03:35:57;16.63;;;8.77;;
50102;SDS011;35993;52.604;10.078;2022-11-15T03:38:41;16.52;;;8.35;;
50102;SDS011;35993;52.604;10.078;2022-11-15T03:41:30;15.68;;;8.85;;
50102;SDS011;35993;52.604;10.078;2022-11-15T03:50:48;15.13;;;8.60;;
50102;SDS011;35993;52.604;10.078;2022-11-15T03:53:33;15.13;;;8.27;;
50102;SDS011;35993;52.604;10.078;2022-11-15T03:56:17;14.85;;;8.70;;
50102;SDS011;35993;52.604;10.078;2022-11-15T03:59:01;14.38;;;8.18;;
50102;SDS011;35993;52.604;10.078;2022-11-15T04:01:46;14.52;;;8.65;;
50102;SDS011;35993;52.604;10.078;2022-11-15T04:04:30;16.30;;;8.57;;
50102;SDS011;35993;52.604;10.078;2022-11-15T04:07:14;13.80;;;7.95;;
50102;SDS011;35993;52.604;10.078;2022-11-15T04:09:58;16.73;;;8.93;;
50102;SDS011;35993;52.604;10.078;2022-11-15T04:12:49;16.83;;;8.73;;
50102;SDS011;35993;52.604;10.078;2022-11-15T04:15:33;13.30;;;8.60;;
50102;SDS011;35993;52.604;10.078;2022-11-15T04:18:17;13.35;;;8.45;;
50102;SDS011;35993;52.604;10.078;2022-11-15T04:21:24;13.63;;;8.40;;
50102;SDS011;35993;52.604;10.078;2022-11-15T04:24:27;14.57;;;8.20;;
50102;SDS011;35993;52.604;10.078;2022-11-15T04:27:11;13.40;;;8.10;;
50102;SDS011;35993;52.604;10.078;2022-11-15T04:29:57;13.57;;;8.50;;
50102;SDS011;35993;52.604;10.078;2022-11-15T04:32:41;15.02;;;7.63;;
50102;SDS011;35993;52.604;10.078;2022-11-15T04:35:25;13.20;;;7.95;;
50102;SDS011;35993;52.604;10.078;2022-11-15T04:38:10;13.90;;;7.47;;
50102;SDS011;35993;52.604;10.078;2022-11-15T04:40:54;13.70;;;8.10;;
50102;SDS011;35993;52.604;10.078;2022-11-15T04:43:39;14.80;;;7.93;;
50102;SDS011;35993;52.604;10.078;2022-11-15T04:46:23;13.05;;;7.72;;
50102;SDS011;35993;52.604;10.078;2022-11-15T04:49:14;14.13;;;8.23;;
50102;SDS011;35993;52.604;10.078;2022-11-15T04:51:58;13.10;;;7.93;;
50102;SDS011;35993;52.604;10.078;2022-11-15T04:54:42;16.23;;;8.88;;
50102;SDS011;35993;52.604;10.078;2022-11-15T04:57:27;14.90;;;8.40;;
50102;SDS011;35993;52.604;10.078;2022-11-15T05:00:12;14.75;;;8.05;;
50102;SDS011;35993;52.604;10.078;2022-11-15T05:02:58;14.57;;;8.50;;
50102;SDS011;35993;52.604;10.078;2022-11-15T05:06:01;13.45;;;7.70;;
50102;SDS011;35993;52.604;10.078;2022-11-15T05:08:46;13.23;;;8.07;;
50102;SDS011;35993;52.604;10.078;2022-11-15T05:11:30;13.25;;;7.63;;
50102;SDS011;35993;52.604;10.078;2022-11-15T05:14:14;13.13;;;7.93;;
50102;SDS011;35993;52.604;10.078;2022-11-15T05:16:59;13.05;;;8.20;;
50102;SDS011;35993;52.604;10.078;2022-11-15T05:19:43;14.00;;;7.60;;
50102;SDS011;35993;52.604;10.078;2022-11-15T05:22:28;14.27;;;7.90;;
50102;SDS011;35993;52.604;10.078;2022-11-15T05:25:12;15.43;;;8.57;;
50102;SDS011;35993;52.604;10.078;2022-11-15T05:27:56;13.35;;;7.95;;
50102;SDS011;35993;52.604;10.078;2022-11-15T05:30:40;14.80;;;8.50;;
50102;SDS011;35993;52.604;10.078;2022-11-15T05:33:25;15.10;;;8.85;;
50102;SDS011;35993;52.604;10.078;2022-11-15T05:36:10;15.50;;;8.82;;
50102;SDS011;35993;52.604;10.078;2022-11-15T05:39:01;13.77;;;8.32;;
50102;SDS011;35993;52.604;10.078;2022-11-15T05:41:51;14.30;;;7.78;;
50102;SDS011;35993;52.604;10.078;2022-11-15T05:44:39;13.32;;;7.60;;
50102;SDS011;35993;52.604;10.078;2022-11-15T05:47:28;17.75;;;10.70;;
50102;SDS011;35993;52.604;10.078;2022-11-15T05:50:17;14.63;;;7.75;;
50102;SDS011;35993;52.604;10.078;2022-11-15T05:53:02;15.38;;;8.32;;
50102;SDS011;35993;52.604;10.078;2022-11-15T05:55:47;16.40;;;8.27;;
50102;SDS011;35993;52.604;10.078;2022-11-15T05:58:34;14.68;;;8.60;;
50102;SDS011;35993;52.604;10.078;2022-11-15T06:01:20;13.18;;;8.15;;
50102;SDS011;35993;52.604;10.078;2022-11-15T06:04:05;15.30;;;8.35;;
50102;SDS011;35993;52.604;10.078;2022-11-15T06:06:49;14.52;;;8.85;;
50102;SDS011;35993;52.604;10.078;2022-11-15T06:10:03;12.98;;;8.02;;
50102;SDS011;35993;52.604;10.078;2022-11-15T06:12:55;14.55;;;7.95;;
50102;SDS011;35993;52.604;10.078;2022-11-15T06:15:43;13.73;;;7.53;;
50102;SDS011;35993;52.604;10.078;2022-11-15T06:18:27;12.73;;;7.63;;
50102;SDS011;35993;52.604;10.078;2022-11-15T06:21:11;14.90;;;7.90;;
50102;SDS011;35993;52.604;10.078;2022-11-15T06:23:55;15.07;;;8.15;;
50102;SDS011;35993;52.604;10.078;2022-11-15T06:26:40;15.27;;;8.52;;
50102;SDS011;35993;52.604;10.078;2022-11-15T06:29:24;13.13;;;7.82;;
50102;SDS011;35993;52.604;10.078;2022-11-15T06:32:08;17.08;;;9.00;;
50102;SDS011;35993;52.604;10.078;2022-11-15T06:34:52;16.13;;;9.07;;
50102;SDS011;35993;52.604;10.078;2022-11-15T06:37:37;14.73;;;7.82;;
50102;SDS011;35993;52.604;10.078;2022-11-15T06:40:21;14.95;;;8.88;;
50102;SDS011;35993;52.604;10.078;2022-11-15T06:43:06;20.83;;;9.68;;
50102;SDS011;35993;52.604;10.078;2022-11-15T06:45:51;13.82;;;8.05;;
50102;SDS011;35993;52.604;10.078;2022-11-15T06:48:35;15.80;;;9.55;;
50102;SDS011;35993;52.604;10.078;2022-11-15T06:51:20;18.13;;;9.02;;
50102;SDS011;35993;52.604;10.078;2022-11-15T06:54:08;17.65;;;8.77;;
50102;SDS011;35993;52.604;10.078;2022-11-15T06:56:53;15.45;;;8.70;;
50102;SDS011;35993;52.604;10.078;2022-11-15T06:59:37;16.88;;;8.65;;
50102;SDS011;35993;52.604;10.078;2022-11-15T07:02:21;17.02;;;8.65;;
50102;SDS011;35993;52.604;10.078;2022-11-15T07:05:05;19.73;;;9.35;;
50102;SDS011;35993;52.604;10.078;2022-11-15T07:07:53;21.38;;;9.45;;
50102;SDS011;35993;52.604;10.078;2022-11-15T07:10:39;19.92;;;9.68;;
50102;SDS011;35993;52.604;10.078;2022-11-15T07:13:26;14.93;;;8.68;;
50102;SDS011;35993;52.604;10.078;2022-11-15T07:16:12;18.50;;;10.93;;
50102;SDS011;35993;52.604;10.078;2022-11-15T07:18:56;19.10;;;10.27;;
50102;SDS011;35993;52.604;10.078;2022-11-15T07:21:40;20.35;;;12.23;;
50102;SDS011;35993;52.604;10.078;2022-11-15T07:24:27;20.15;;;10.63;;
50102;SDS011;35993;52.604;10.078;2022-11-15T07:27:12;16.42;;;8.57;;
50102;SDS011;35993;52.604;10.078;2022-11-15T07:29:55;14.50;;;7.65;;
50102;SDS011;35993;52.604;10.078;2022-11-15T07:32:47;13.73;;;7.53;;
50102;SDS011;35993;52.604;10.078;2022-11-15T07:35:31;13.05;;;7.97;;
50102;SDS011;35993;52.604;10.078;2022-11-15T07:38:16;16.55;;;8.48;;
50102;SDS011;35993;52.604;10.078;2022-11-15T07:41:04;14.77;;;8.30;;
50102;SDS011;35993;52.604;10.078;2022-11-15T07:43:52;14.52;;;7.95;;
50102;SDS011;35993;52.604;10.078;2022-11-15T07:46:36;15.38;;;8.20;;
50102;SDS011;35993;52.604;10.078;2022-11-15T07:49:20;13.02;;;7.53;;
50102;SDS011;35993;52.604;10.078;2022-11-15T07:52:05;12.50;;;7.10;;
50102;SDS011;35993;52.604;10.078;2022-11-15T07:54:49;12.15;;;7.72;;
50102;SDS011;35993;52.604;10.078;2022-11-15T07:57:33;16.77;;;8.80;;
50102;SDS011;35993;52.604;10.078;2022-11-15T08:00:17;19.67;;;9.10;;
50102;SDS011;35993;52.604;10.078;2022-11-15T08:03:03;14.98;;;8.27;;
50102;SDS011;35993;52.604;10.078;2022-11-15T08:05:52;15.45;;;7.93;;
50102;SDS011;35993;52.604;10.078;2022-11-15T08:08:36;11.85;;;7.20;;
50102;SDS011;35993;52.604;10.078;2022-11-15T08:11:20;14.23;;;7.55;;
50102;SDS011;35993;52.604;10.078;2022-11-15T08:14:25;15.32;;;6.95;;
50102;SDS011;35993;52.604;10.078;2022-11-15T08:17:09;9.88;;;6.18;;
50102;SDS011;35993;52.604;10.078;2022-11-15T08:19:53;12.73;;;7.03;;
50102;SDS011;35993;52.604;10.078;2022-11-15T08:22:37;12.50;;;6.43;;
50102;SDS011;35993;52.604;10.078;2022-11-15T08:25:22;11.25;;;6.55;;
50102;SDS011;35993;52.604;10.078;2022-11-15T08:28:07;10.25;;;6.30;;
50102;SDS011;35993;52.604;10.078;2022-11-15T08:30:54;9.75;;;5.82;;
50102;SDS011;35993;52.604;10.078;2022-11-15T08:33:38;10.05;;;6.30;;
50102;SDS011;35993;52.604;10.078;2022-11-15T08:36:22;10.88;;;6.38;;
50102;SDS011;35993;52.604;10.078;2022-11-15T08:39:09;10.80;;;6.55;;
50102;SDS011;35993;52.604;10.078;2022-11-15T08:41:55;8.52;;;5.60;;
50102;SDS011;35993;52.604;10.078;2022-11-15T08:44:39;10.80;;;6.15;;
50102;SDS011;35993;52.604;10.078;2022-11-15T08:47:23;9.82;;;5.32;;
50102;SDS011;35993;52.604;10.078;2022-11-15T08:53:10;11.45;;;5.82;;
50102;SDS011;35993;52.604;10.078;2022-11-15T08:55:54;9.57;;;5.70;;
50102;SDS011;35993;52.604;10.078;2022-11-15T08:58:38;9.15;;;5.00;;
50102;SDS011;35993;52.604;10.078;2022-11-15T09:01:22;8.75;;;5.13;;
50102;SDS011;35993;52.604;10.078;2022-11-15T09:04:06;10.32;;;4.88;;
50102;SDS011;35993;52.604;10.078;2022-11-15T09:06:51;9.98;;;5.03;;
50102;SDS011;35993;52.604;10.078;2022-11-15T09:09:35;6.90;;;4.90;;
50102;SDS011;35993;52.604;10.078;2022-11-15T09:12:19;11.30;;;5.13;;
50102;SDS011;35993;52.604;10.078;2022-11-15T09:15:04;10.48;;;4.85;;
50102;SDS011;35993;52.604;10.078;2022-11-15T09:17:51;7.88;;;4.40;;
50102;SDS011;35993;52.604;10.078;2022-11-15T09:20:35;8.73;;;4.40;;
50102;SDS011;35993;52.604;10.078;2022-11-15T09:23:19;7.65;;;4.32;;
50102;SDS011;35993;52.604;10.078;2022-11-15T09:26:04;4.97;;;3.58;;
50102;SDS011;35993;52.604;10.078;2022-11-15T09:28:49;5.60;;;3.63;;
50102;SDS011;35993;52.604;10.078;2022-11-15T09:31:33;5.57;;;4.05;;
50102;SDS011;35993;52.604;10.078;2022-11-15T09:34:17;8.00;;;3.78;;
50102;SDS011;35993;52.604;10.078;2022-11-15T09:37:01;5.95;;;3.38;;
50102;SDS011;35993;52.604;10.078;2022-11-15T09:39:46;6.75;;;3.53;;
50102;SDS011;35993;52.604;10.078;2022-11-15T09:42:52;5.80;;;3.30;;
50102;SDS011;35993;52.604;10.078;2022-11-15T09:46:38;4.43;;;3.15;;
50102;SDS011;35993;52.604;10.078;2022-11-15T09:49:33;4.38;;;3.10;;
50102;SDS011;35993;52.604;10.078;2022-11-15T09:52:11;5.20;;;3.33;;
50102;SDS011;35993;52.604;10.078;2022-11-15T09:54:37;4.47;;;2.95;;
50102;SDS011;35993;52.604;10.078;2022-11-15T10:02:49;6.45;;;3.63;;
50102;SDS011;35993;52.604;10.078;2022-11-15T10:05:23;6.53;;;3.00;;
50102;SDS011;35993;52.604;10.078;2022-11-15T10:10:47;5.70;;;3.00;;
50102;SDS011;35993;52.604;10.078;2022-11-15T10:16:03;5.90;;;2.78;;
50102;SDS011;35993;52.604;10.078;2022-11-15T10:21:11;4.60;;;3.00;;
50102;SDS011;35993;52.604;10.078;2022-11-15T10:23:42;4.43;;;2.50;;
50102;SDS011;35993;52.604;10.078;2022-11-15T10:26:10;5.05;;;2.58;;
50102;SDS011;35993;52.604;10.078;2022-11-15T10:28:38;4.63;;;2.50;;
50102;SDS011;35993;52.604;10.078;2022-11-15T10:31:10;4.43;;;2.80;;
50102;SDS011;35993;52.604;10.078;2022-11-15T10:33:58;5.38;;;2.53;;
50102;SDS011;35993;52.604;10.078;2022-11-15T10:36:37;3.90;;;2.60;;
50102;SDS011;35993;52.604;10.078;2022-11-15T10:39:03;4.43;;;2.30;;
50102;SDS011;35993;52.604;10.078;2022-11-15T10:41:30;3.75;;;2.40;;
50102;SDS011;35993;52.604;10.078;2022-11-15T10:44:19;3.63;;;2.27;;
50102;SDS011;35993;52.604;10.078;2022-11-15T10:46:46;5.93;;;2.60;;
50102;SDS011;35993;52.604;10.078;2022-11-15T10:49:23;3.60;;;2.40;;
50102;SDS011;35993;52.604;10.078;2022-11-15T10:52:04;5.55;;;2.47;;
50102;SDS011;35993;52.604;10.078;2022-11-15T10:54:48;4.47;;;2.58;;
50102;SDS011;35993;52.604;10.078;2022-11-15T10:57:25;4.93;;;2.30;;
50102;SDS011;35993;52.604;10.078;2022-11-15T11:08:23;5.63;;;2.57;;
50102;SDS011;35993;52.604;10.078;2022-11-15T11:10:56;6.13;;;2.70;;
50102;SDS011;35993;52.604;10.078;2022-11-15T11:13:25;4.68;;;2.47;;
50102;SDS011;35993;52.604;10.078;2022-11-15T11:15:54;5.03;;;2.50;;
50102;SDS011;35993;52.604;10.078;2022-11-15T11:18:23;3.72;;;2.40;;
50102;SDS011;35993;52.604;10.078;2022-11-15T11:21:02;4.35;;;2.50;;
50102;SDS011;35993;52.604;10.078;2022-11-15T11:23:51;4.55;;;2.80;;
50102;SDS011;35993;52.604;10.078;2022-11-15T11:41:04;4.07;;;2.13;;
50102;SDS011;35993;52.604;10.078;2022-11-15T11:49:10;3.25;;;2.40;;
50102;SDS011;35993;52.604;10.078;2022-11-15T11:51:45;4.82;;;2.50;;
50102;SDS011;35993;52.604;10.078;2022-11-15T11:57:05;6.18;;;2.58;;
50102;SDS011;35993;52.604;10.078;2022-11-15T11:59:53;4.05;;;2.60;;
50102;SDS011;35993;52.604;10.078;2022-11-15T12:02:41;4.40;;;2.40;;
50102;SDS011;35993;52.604;10.078;2022-11-15T12:07:59;6.10;;;3.10;;
50102;SDS011;35993;52.604;10.078;2022-11-15T12:10:40;4.80;;;2.97;;
50102;SDS011;35993;52.604;10.078;2022-11-15T12:13:18;3.22;;;2.20;;
50102;SDS011;35993;52.604;10.078;2022-11-15T12:16:11;5.38;;;2.60;;
50102;SDS011;35993;52.604;10.078;2022-11-15T12:18:43;5.03;;;2.58;;
50102;SDS011;35993;52.604;10.078;2022-11-15T12:23:58;3.80;;;2.50;;
50102;SDS011;35993;52.604;10.078;2022-11-15T12:26:31;7.30;;;2.67;;
50102;SDS011;35993;52.604;10.078;2022-11-15T12:29:09;5.20;;;2.20;;
50102;SDS011;35993;52.604;10.078;2022-11-15T12:31:50;3.60;;;2.20;;
50102;SDS011;35993;52.604;10.078;2022-11-15T12:40:28;4.47;;;2.20;;
50102;SDS011;35993;52.604;10.078;2022-11-15T12:45:40;4.82;;;3.13;;
50102;SDS011;35993;52.604;10.078;2022-11-15T12:56:35;7.03;;;3.08;;
50102;SDS011;35993;52.604;10.078;2022-11-15T13:01:52;4.30;;;2.65;;
50102;SDS011;35993;52.604;10.078;2022-11-15T13:06:46;3.85;;;2.45;;
50102;SDS011;35993;52.604;10.078;2022-11-15T13:11:58;2.58;;;1.98;;
50102;SDS011;35993;52.604;10.078;2022-11-15T13:15:00;2.92;;;1.77;;
50102;SDS011;35993;52.604;10.078;2022-11-15T13:17:34;3.42;;;2.42;;
50102;SDS011;35993;52.604;10.078;2022-11-15T13:27:58;2.80;;;2.00;;
50102;SDS011;35993;52.604;10.078;2022-11-15T13:30:29;3.60;;;1.92;;
50102;SDS011;35993;52.604;10.078;2022-11-15T13:32:58;3.03;;;1.98;;
50102;SDS011;35993;52.604;10.078;2022-11-15T13:35:33;4.38;;;2.00;;
50102;SDS011;35993;52.604;10.078;2022-11-15T13:38:04;3.13;;;1.90;;
50102;SDS011;35993;52.604;10.078;2022-11-15T13:40:34;4.50;;;2.20;;
50102;SDS011;35993;52.604;10.078;2022-11-15T13:48:39;4.93;;;2.70;;
50102;SDS011;35993;52.604;10.078;2022-11-15T13:51:08;6.63;;;4.43;;
50102;SDS011;35993;52.604;10.078;2022-11-15T13:53:44;4.85;;;2.67;;
50102;SDS011;35993;52.604;10.078;2022-11-15T13:56:14;5.97;;;3.13;;
50102;SDS011;35993;52.604;10.078;2022-11-15T13:58:42;3.88;;;2.28;;
50102;SDS011;35993;52.604;10.078;2022-11-15T14:01:18;3.83;;;2.50;;
50102;SDS011;35993;52.604;10.078;2022-11-15T14:03:56;6.00;;;3.60;;
50102;SDS011;35993;52.604;10.078;2022-11-15T14:06:25;4.47;;;2.83;;
50102;SDS011;35993;52.604;10.078;2022-11-15T14:09:04;5.72;;;2.95;;
50102;SDS011;35993;52.604;10.078;2022-11-15T14:11:52;5.35;;;2.88;;
50102;SDS011;35993;52.604;10.078;2022-11-15T14:14:20;4.70;;;3.03;;
50102;SDS011;35993;52.604;10.078;2022-11-15T14:16:51;7.45;;;3.20;;
50102;SDS011;35993;52.604;10.078;2022-11-15T14:30:38;3.58;;;2.53;;
50102;SDS011;35993;52.604;10.078;2022-11-15T14:36:05;5.53;;;4.28;;
50102;SDS011;35993;52.604;10.078;2022-11-15T14:38:37;5.50;;;3.35;;
50102;SDS011;35993;52.604;10.078;2022-11-15T14:41:03;4.07;;;2.72;;
50102;SDS011;35993;52.604;10.078;2022-11-15T14:43:29;4.68;;;2.90;;
50102;SDS011;35993;52.604;10.078;2022-11-15T14:45:55;4.13;;;2.80;;
50102;SDS011;35993;52.604;10.078;2022-11-15T14:48:20;4.78;;;2.67;;
50102;SDS011;35993;52.604;10.078;2022-11-15T14:50:47;5.72;;;2.40;;
50102;SDS011;35993;52.604;10.078;2022-11-15T14:53:17;6.97;;;3.28;;
50102;SDS011;35993;52.604;10.078;2022-11-15T14:55:43;7.60;;;3.70;;
50102;SDS011;35993;52.604;10.078;2022-11-15T14:58:09;5.22;;;3.35;;
50102;SDS011;35993;52.604;10.078;2022-11-15T15:00:35;4.72;;;3.00;;
50102;SDS011;35993;52.604;10.078;2022-11-15T15:03:03;5.55;;;3.00;;
50102;SDS011;35993;52.604;10.078;2022-11-15T15:05:43;4.72;;;3.50;;
50102;SDS011;35993;52.604;10.078;2022-11-15T15:08:09;5.25;;;2.88;;
50102;SDS011;35993;52.604;10.078;2022-11-15T15:10:45;7.32;;;3.17;;
50102;SDS011;35993;52.604;10.078;2022-11-15T15:13:18;5.15;;;3.35;;
50102;SDS011;35993;52.604;10.078;2022-11-15T15:15:46;5.13;;;2.80;;
50102;SDS011;35993;52.604;10.078;2022-11-15T15:18:13;5.72;;;2.80;;
50102;SDS011;35993;52.604;10.078;2022-11-15T15:20:39;4.32;;;2.78;;
50102;SDS011;35993;52.604;10.078;2022-11-15T15:23:10;5.97;;;3.15;;
50102;SDS011;35993;52.604;10.078;2022-11-15T15:25:43;6.82;;;3.05;;
50102;SDS011;35993;52.604;10.078;2022-11-15T15:28:11;4.25;;;3.10;;
50102;SDS011;35993;52.604;10.078;2022-11-15T15:30:37;4.97;;;3.00;;
50102;SDS011;35993;52.604;10.078;2022-11-15T15:33:02;7.07;;;2.95;;
50102;SDS011;35993;52.604;10.078;2022-11-15T15:35:32;5.45;;;3.10;;
50102;SDS011;35993;52.604;10.078;2022-11-15T15:37:59;6.25;;;3.20;;
50102;SDS011;35993;52.604;10.078;2022-11-15T15:40:27;5.95;;;3.28;;
50102;SDS011;35993;52.604;10.078;2022-11-15T15:42:54;7.07;;;2.85;;
50102;SDS011;35993;52.604;10.078;2022-11-15T15:45:24;5.30;;;2.95;;
50102;SDS011;35993;52.604;10.078;2022-11-15T15:47:50;4.50;;;3.22;;
50102;SDS011;35993;52.604;10.078;2022-11-15T15:52:58;4.97;;;3.13;;
50102;SDS011;35993;52.604;10.078;2022-11-15T15:55:26;5.40;;;3.20;;
50102;SDS011;35993;52.604;10.078;2022-11-15T15:57:52;5.20;;;3.47;;
50102;SDS011;35993;52.604;10.078;2022-11-15T16:00:18;6.32;;;3.80;;
50102;SDS011;35993;52.604;10.078;2022-11-15T16:02:45;9.38;;;5.53;;
50102;SDS011;35993;52.604;10.078;2022-11-15T16:05:11;9.00;;;5.47;;
50102;SDS011;35993;52.604;10.078;2022-11-15T16:07:37;10.90;;;4.78;;
50102;SDS011;35993;52.604;10.078;2022-11-15T16:10:18;11.85;;;6.15;;
50102;SDS011;35993;52.604;10.078;2022-11-15T16:12:51;8.00;;;5.05;;
50102;SDS011;35993;52.604;10.078;2022-11-15T16:15:18;14.55;;;7.07;;
50102;SDS011;35993;52.604;10.078;2022-11-15T16:17:51;13.57;;;6.53;;
50102;SDS011;35993;52.604;10.078;2022-11-15T16:23:01;10.82;;;5.88;;
50102;SDS011;35993;52.604;10.078;2022-11-15T16:25:28;6.82;;;4.07;;
50102;SDS011;35993;52.604;10.078;2022-11-15T16:28:14;7.35;;;4.25;;
50102;SDS011;35993;52.604;10.078;2022-11-15T16:30:43;5.75;;;4.00;;
50102;SDS011;35993;52.604;10.078;2022-11-15T16:33:08;6.35;;;4.07;;
50102;SDS011;35993;52.604;10.078;2022-11-15T16:35:34;7.97;;;3.80;;
50102;SDS011;35993;52.604;10.078;2022-11-15T16:38:00;6.70;;;3.90;;
50102;SDS011;35993;52.604;10.078;2022-11-15T16:40:29;5.28;;;3.78;;
50102;SDS011;35993;52.604;10.078;2022-11-15T16:42:57;7.50;;;3.92;;
50102;SDS011;35993;52.604;10.078;2022-11-15T16:45:24;6.32;;;3.78;;
50102;SDS011;35993;52.604;10.078;2022-11-15T16:47:53;6.57;;;4.03;;
50102;SDS011;35993;52.604;10.078;2022-11-15T16:50:24;7.43;;;4.35;;
50102;SDS011;35993;52.604;10.078;2022-11-15T16:52:54;7.32;;;4.28;;
50102;SDS011;35993;52.604;10.078;2022-11-15T16:55:45;8.05;;;4.68;;
50102;SDS011;35993;52.604;10.078;2022-11-15T16:58:11;8.00;;;4.47;;
50102;SDS011;35993;52.604;10.078;2022-11-15T17:00:36;7.80;;;4.72;;
50102;SDS011;35993;52.604;10.078;2022-11-15T17:03:02;10.10;;;4.78;;
50102;SDS011;35993;52.604;10.078;2022-11-15T17:05:28;5.93;;;4.45;;
50102;SDS011;35993;52.604;10.078;2022-11-15T17:07:54;11.00;;;4.90;;
50102;SDS011;35993;52.604;10.078;2022-11-15T17:10:20;9.45;;;4.80;;
50102;SDS011;35993;52.604;10.078;2022-11-15T17:12:47;7.85;;;4.63;;
50102;SDS011;35993;52.604;10.078;2022-11-15T17:15:14;7.43;;;4.30;;
50102;SDS011;35993;52.604;10.078;2022-11-15T17:17:40;6.95;;;4.15;;
50102;SDS011;35993;52.604;10.078;2022-11-15T17:20:08;9.63;;;5.10;;
50102;SDS011;35993;52.604;10.078;2022-11-15T17:22:39;8.43;;;5.25;;
50102;SDS011;35993;52.604;10.078;2022-11-15T17:25:05;7.60;;;4.80;;
50102;SDS011;35993;52.604;10.078;2022-11-15T17:27:31;8.63;;;4.97;;
50102;SDS011;35993;52.604;10.078;2022-11-15T17:29:57;8.32;;;5.07;;
50102;SDS011;35993;52.604;10.078;2022-11-15T17:32:22;10.57;;;5.13;;
50102;SDS011;35993;52.604;10.078;2022-11-15T17:34:48;9.52;;;4.85;;
50102;SDS011;35993;52.604;10.078;2022-11-15T17:37:13;9.98;;;5.10;;
50102;SDS011;35993;52.604;10.078;2022-11-15T17:39:39;8.77;;;5.05;;
50102;SDS011;35993;52.604;10.078;2022-11-15T17:42:05;8.18;;;4.90;;
50102;SDS011;35993;52.604;10.078;2022-11-15T17:44:30;10.93;;;5.25;;
50102;SDS011;35993;52.604;10.078;2022-11-15T17:46:59;8.93;;;4.85;;
50102;SDS011;35993;52.604;10.078;2022-11-15T17:49:25;9.25;;;4.90;;
50102;SDS011;35993;52.604;10.078;2022-11-15T17:51:51;9.00;;;5.35;;
50102;SDS011;35993;52.604;10.078;2022-11-15T17:54:17;8.05;;;5.20;;
50102;SDS011;35993;52.604;10.078;2022-11-15T17:56:43;7.50;;;4.93;;
50102;SDS011;35993;52.604;10.078;2022-11-15T17:59:19;7.75;;;5.32;;
50102;SDS011;35993;52.604;10.078;2022-11-15T18:01:45;8.55;;;5.30;;
50102;SDS011;35993;52.604;10.078;2022-11-15T18:04:10;8.45;;;5.10;;
50102;SDS011;35993;52.604;10.078;2022-11-15T18:06:39;13.20;;;5.40;;
50102;SDS011;35993;52.604;10.078;2022-11-15T18:09:05;9.70;;;4.90;;